sensor_id;sensor_type;location;lat;lon;timestamp;temperature;humidity
13697;DHT22;6920;50.080;8.226;2023-12-20T00:00:53;5.40;99.90
13697;DHT22;6920;50.080;8.226;2023-12-20T00:03:25;5.40;99.90
13697;DHT22;6920;50.080;8.226;2023-12-20T00:05:53;5.40;99.90
13697;DHT22;6920;50.080;8.226;2023-12-20T00:08:22;5.40;99.90
13697;DHT22;6920;50.080;8.226;2023-12-20T00:10:49;5.40;99.90
13697;DHT22;6920;50.080;8.226;2023-12-20T00:13:28;5.30;99.90
13697;DHT22;6920;50.080;8.226;2023-12-20T00:16:09;5.30;99.90
13697;DHT22;6920;50.080;8.226;2023-12-20T00:21:08;5.30;99.90
13697;DHT22;6920;50.080;8.226;2023-12-20T00:23:35;5.30;99.90
13697;DHT22;6920;50.080;8.226;2023-12-20T00:26:04;5.30;99.90
13697;DHT22;6920;50.080;8.226;2023-12-20T00:28:35;5.30;99.90
13697;DHT22;6920;50.080;8.226;2023-12-20T00:31:07;5.30;99.90
13697;DHT22;6920;50.080;8.226;2023-12-20T00:33:36;5.30;99.90
13697;DHT22;6920;50.080;8.226;2023-12-20T00:36:03;5.30;99.90
13697;DHT22;6920;50.080;8.226;2023-12-20T00:38:31;5.30;99.90
13697;DHT22;6920;50.080;8.226;2023-12-20T00:41:02;5.30;99.90
13697;DHT22;6920;50.080;8.226;2023-12-20T00:43:34;5.30;99.90
13697;DHT22;6920;50.080;8.226;2023-12-20T00:46:01;5.30;99.90
13697;DHT22;6920;50.080;8.226;2023-12-20T00:48:31;5.30;99.90
13697;DHT22;6920;50.080;8.226;2023-12-20T00:51:00;5.30;99.90
13697;DHT22;6920;50.080;8.226;2023-12-20T00:53:28;5.40;99.90
13697;DHT22;6920;50.080;8.226;2023-12-20T00:55:56;5.30;99.90
13697;DHT22;6920;50.080;8.226;2023-12-20T00:58:28;5.30;99.90
13697;DHT22;6920;50.080;8.226;2023-12-20T01:00:57;5.40;99.90
13697;DHT22;6920;50.080;8.226;2023-12-20T01:03:25;5.40;99.90
13697;DHT22;6920;50.080;8.226;2023-12-20T01:05:55;5.40;99.90
13697;DHT22;6920;50.080;8.226;2023-12-20T01:13:17;5.40;99.90
13697;DHT22;6920;50.080;8.226;2023-12-20T01:15:44;5.40;99.90
13697;DHT22;6920;50.080;8.226;2023-12-20T01:25:34;5.40;99.90
13697;DHT22;6920;50.080;8.226;2023-12-20T01:28:02;5.40;99.90
13697;DHT22;6920;50.080;8.226;2023-12-20T01:30:30;5.40;99.90
13697;DHT22;6920;50.080;8.226;2023-12-20T01:32:59;5.40;99.90
13697;DHT22;6920;50.080;8.226;2023-12-20T01:37:58;5.40;99.90
13697;DHT22;6920;50.080;8.226;2023-12-20T01:40:28;5.40;99.90
13697;DHT22;6920;50.080;8.226;2023-12-20T01:42:59;5.30;99.90
13697;DHT22;6920;50.080;8.226;2023-12-20T01:45:27;5.30;99.90
13697;DHT22;6920;50.080;8.226;2023-12-20T01:47:56;5.40;99.90
13697;DHT22;6920;50.080;8.226;2023-12-20T01:50:28;5.30;99.90
13697;DHT22;6920;50.080;8.226;2023-12-20T01:53:00;5.40;99.90
13697;DHT22;6920;50.080;8.226;2023-12-20T01:55:31;5.30;99.90
13697;DHT22;6920;50.080;8.226;2023-12-20T01:58:00;5.30;99.90
13697;DHT22;6920;50.080;8.226;2023-12-20T02:00:28;5.40;99.90
13697;DHT22;6920;50.080;8.226;2023-12-20T02:02:57;5.40;99.90
13697;DHT22;6920;50.080;8.226;2023-12-20T02:05:28;5.40;99.90
13697;DHT22;6920;50.080;8.226;2023-12-20T02:10:23;5.30;99.90
13697;DHT22;6920;50.080;8.226;2023-12-20T02:12:52;5.30;99.90
13697;DHT22;6920;50.080;8.226;2023-12-20T02:17:47;5.40;99.90
13697;DHT22;6920;50.080;8.226;2023-12-20T02:25:11;5.30;99.90
13697;DHT22;6920;50.080;8.226;2023-12-20T02:27:39;5.30;99.90
13697;DHT22;6920;50.080;8.226;2023-12-20T02:32:36;5.30;99.90
13697;DHT22;6920;50.080;8.226;2023-12-20T02:35:05;5.40;99.90
13697;DHT22;6920;50.080;8.226;2023-12-20T02:37:33;5.40;99.90
13697;DHT22;6920;50.080;8.226;2023-12-20T02:40:12;5.40;99.90
13697;DHT22;6920;50.080;8.226;2023-12-20T02:45:08;5.40;99.90
13697;DHT22;6920;50.080;8.226;2023-12-20T03:02:26;5.50;99.90
13697;DHT22;6920;50.080;8.226;2023-12-20T03:04:53;5.50;99.90
13697;DHT22;6920;50.080;8.226;2023-12-20T03:07:20;5.50;99.90
13697;DHT22;6920;50.080;8.226;2023-12-20T03:09:48;5.50;99.90
13697;DHT22;6920;50.080;8.226;2023-12-20T03:12:16;5.50;99.90
13697;DHT22;6920;50.080;8.226;2023-12-20T03:14:44;5.50;99.90
13697;DHT22;6920;50.080;8.226;2023-12-20T03:17:11;5.50;99.90
13697;DHT22;6920;50.080;8.226;2023-12-20T03:19:39;5.60;99.90
13697;DHT22;6920;50.080;8.226;2023-12-20T03:22:06;5.60;99.90
13697;DHT22;6920;50.080;8.226;2023-12-20T03:24:33;5.60;99.90
13697;DHT22;6920;50.080;8.226;2023-12-20T03:29:30;5.60;99.90
13697;DHT22;6920;50.080;8.226;2023-12-20T03:34:26;5.60;99.90
13697;DHT22;6920;50.080;8.226;2023-12-20T03:36:54;5.70;99.90
13697;DHT22;6920;50.080;8.226;2023-12-20T03:41:49;5.70;99.90
13697;DHT22;6920;50.080;8.226;2023-12-20T03:44:16;5.70;99.90
13697;DHT22;6920;50.080;8.226;2023-12-20T03:46:46;8.70;99.90
13697;DHT22;6920;50.080;8.226;2023-12-20T03:51:42;5.70;99.90
13697;DHT22;6920;50.080;8.226;2023-12-20T03:54:09;5.80;99.90
13697;DHT22;6920;50.080;8.226;2023-12-20T03:56:36;5.80;99.90
13697;DHT22;6920;50.080;8.226;2023-12-20T04:04:02;5.90;99.90
13697;DHT22;6920;50.080;8.226;2023-12-20T04:08:58;5.90;99.90
13697;DHT22;6920;50.080;8.226;2023-12-20T04:13:54;5.90;99.90
13697;DHT22;6920;50.080;8.226;2023-12-20T04:16:21;6.00;99.90
13697;DHT22;6920;50.080;8.226;2023-12-20T04:18:49;6.00;99.90
13697;DHT22;6920;50.080;8.226;2023-12-20T04:21:17;5.90;99.90
13697;DHT22;6920;50.080;8.226;2023-12-20T04:23:44;6.00;99.90
13697;DHT22;6920;50.080;8.226;2023-12-20T04:26:12;6.10;99.90
13697;DHT22;6920;50.080;8.226;2023-12-20T04:28:40;6.10;99.90
13697;DHT22;6920;50.080;8.226;2023-12-20T04:31:08;6.10;99.90
13697;DHT22;6920;50.080;8.226;2023-12-20T04:36:03;6.20;99.90
13697;DHT22;6920;50.080;8.226;2023-12-20T04:38:32;6.20;99.90
13697;DHT22;6920;50.080;8.226;2023-12-20T04:45:55;6.40;99.90
13697;DHT22;6920;50.080;8.226;2023-12-20T04:48:22;6.50;99.90
13697;DHT22;6920;50.080;8.226;2023-12-20T04:53:17;6.40;99.90
13697;DHT22;6920;50.080;8.226;2023-12-20T04:58:13;6.20;99.90
13697;DHT22;6920;50.080;8.226;2023-12-20T05:08:05;5.80;99.90
13697;DHT22;6920;50.080;8.226;2023-12-20T05:13:02;5.80;99.90
13697;DHT22;6920;50.080;8.226;2023-12-20T05:15:29;5.90;99.90
13697;DHT22;6920;50.080;8.226;2023-12-20T05:22:52;5.80;99.90
13697;DHT22;6920;50.080;8.226;2023-12-20T05:25:20;5.80;99.90
13697;DHT22;6920;50.080;8.226;2023-12-20T05:27:48;5.80;99.90
13697;DHT22;6920;50.080;8.226;2023-12-20T05:30:17;5.80;99.90
13697;DHT22;6920;50.080;8.226;2023-12-20T05:35:12;5.80;99.90
13697;DHT22;6920;50.080;8.226;2023-12-20T05:37:41;5.80;99.90
13697;DHT22;6920;50.080;8.226;2023-12-20T05:40:08;5.80;99.90
13697;DHT22;6920;50.080;8.226;2023-12-20T05:42:36;5.80;99.90
13697;DHT22;6920;50.080;8.226;2023-12-20T05:45:04;5.70;99.90
13697;DHT22;6920;50.080;8.226;2023-12-20T05:47:36;3.10;99.90
13697;DHT22;6920;50.080;8.226;2023-12-20T05:52:32;5.70;99.90
13697;DHT22;6920;50.080;8.226;2023-12-20T05:54:59;5.70;99.90
13697;DHT22;6920;50.080;8.226;2023-12-20T05:59:54;5.60;99.90
13697;DHT22;6920;50.080;8.226;2023-12-20T06:02:22;5.60;99.90
13697;DHT22;6920;50.080;8.226;2023-12-20T06:04:50;5.50;99.90
13697;DHT22;6920;50.080;8.226;2023-12-20T06:07:18;5.50;99.90
13697;DHT22;6920;50.080;8.226;2023-12-20T06:09:46;5.50;99.90
13697;DHT22;6920;50.080;8.226;2023-12-20T06:12:13;5.40;99.90
13697;DHT22;6920;50.080;8.226;2023-12-20T06:14:41;5.30;99.90
13697;DHT22;6920;50.080;8.226;2023-12-20T06:17:08;5.30;99.90
13697;DHT22;6920;50.080;8.226;2023-12-20T06:19:35;5.30;99.90
13697;DHT22;6920;50.080;8.226;2023-12-20T06:22:04;5.40;99.90
13697;DHT22;6920;50.080;8.226;2023-12-20T06:24:32;5.20;99.90
13697;DHT22;6920;50.080;8.226;2023-12-20T06:27:00;5.20;99.90
13697;DHT22;6920;50.080;8.226;2023-12-20T06:29:27;5.20;99.90
13697;DHT22;6920;50.080;8.226;2023-12-20T06:34:23;5.10;99.90
13697;DHT22;6920;50.080;8.226;2023-12-20T06:36:50;5.10;99.90
13697;DHT22;6920;50.080;8.226;2023-12-20T06:44:14;5.00;99.90
13697;DHT22;6920;50.080;8.226;2023-12-20T06:46:41;4.80;99.90
13697;DHT22;6920;50.080;8.226;2023-12-20T06:51:36;4.90;99.90
13697;DHT22;6920;50.080;8.226;2023-12-20T06:54:03;5.00;99.90
13697;DHT22;6920;50.080;8.226;2023-12-20T06:56:33;8.60;99.90
13697;DHT22;6920;50.080;8.226;2023-12-20T07:01:28;5.00;99.90
13697;DHT22;6920;50.080;8.226;2023-12-20T07:08:52;5.00;99.90
13697;DHT22;6920;50.080;8.226;2023-12-20T07:11:20;5.10;99.90
13697;DHT22;6920;50.080;8.226;2023-12-20T07:16:16;5.10;99.90
13697;DHT22;6920;50.080;8.226;2023-12-20T07:18:43;5.10;99.90
13697;DHT22;6920;50.080;8.226;2023-12-20T07:21:12;5.20;99.90
13697;DHT22;6920;50.080;8.226;2023-12-20T07:26:07;5.20;99.90
13697;DHT22;6920;50.080;8.226;2023-12-20T07:31:11;5.20;99.90
13697;DHT22;6920;50.080;8.226;2023-12-20T07:33:38;5.10;99.90
13697;DHT22;6920;50.080;8.226;2023-12-20T07:38:34;5.10;99.90
13697;DHT22;6920;50.080;8.226;2023-12-20T07:41:02;5.20;99.90
13697;DHT22;6920;50.080;8.226;2023-12-20T07:45:57;5.20;99.90
13697;DHT22;6920;50.080;8.226;2023-12-20T07:50:53;5.30;99.90
13697;DHT22;6920;50.080;8.226;2023-12-20T07:53:22;5.30;99.90
13697;DHT22;6920;50.080;8.226;2023-12-20T07:58:18;5.40;99.90
13697;DHT22;6920;50.080;8.226;2023-12-20T08:08:12;5.40;99.90
13697;DHT22;6920;50.080;8.226;2023-12-20T08:18:04;5.60;99.90
13697;DHT22;6920;50.080;8.226;2023-12-20T08:23:02;5.60;99.90
13697;DHT22;6920;50.080;8.226;2023-12-20T08:25:29;5.70;99.90
13697;DHT22;6920;50.080;8.226;2023-12-20T08:30:25;5.70;99.90
13697;DHT22;6920;50.080;8.226;2023-12-20T08:32:54;5.70;99.90
13697;DHT22;6920;50.080;8.226;2023-12-20T08:35:22;5.70;99.90
13697;DHT22;6920;50.080;8.226;2023-12-20T08:37:50;5.50;99.90
13697;DHT22;6920;50.080;8.226;2023-12-20T08:40:19;5.70;99.90
13697;DHT22;6920;50.080;8.226;2023-12-20T08:42:47;5.70;99.90
13697;DHT22;6920;50.080;8.226;2023-12-20T08:45:15;5.70;99.90
13697;DHT22;6920;50.080;8.226;2023-12-20T08:50:11;5.80;99.90
13697;DHT22;6920;50.080;8.226;2023-12-20T08:52:41;5.90;99.90
13697;DHT22;6920;50.080;8.226;2023-12-20T08:55:09;5.80;99.90
13697;DHT22;6920;50.080;8.226;2023-12-20T08:57:45;5.90;99.90
13697;DHT22;6920;50.080;8.226;2023-12-20T09:02:46;5.90;99.90
13697;DHT22;6920;50.080;8.226;2023-12-20T09:10:09;6.00;99.90
13697;DHT22;6920;50.080;8.226;2023-12-20T09:12:38;6.00;99.90
13697;DHT22;6920;50.080;8.226;2023-12-20T09:20:01;6.00;99.90
13697;DHT22;6920;50.080;8.226;2023-12-20T09:22:31;6.00;99.90
13697;DHT22;6920;50.080;8.226;2023-12-20T09:24:59;6.10;99.90
13697;DHT22;6920;50.080;8.226;2023-12-20T09:29:58;6.20;99.90
13697;DHT22;6920;50.080;8.226;2023-12-20T09:34:55;6.20;99.90
13697;DHT22;6920;50.080;8.226;2023-12-20T09:37:25;6.20;99.90
13697;DHT22;6920;50.080;8.226;2023-12-20T09:39:53;6.30;99.90
13697;DHT22;6920;50.080;8.226;2023-12-20T09:42:37;6.40;99.90
13697;DHT22;6920;50.080;8.226;2023-12-20T09:45:08;6.40;99.90
13697;DHT22;6920;50.080;8.226;2023-12-20T09:50:05;6.40;99.90
13697;DHT22;6920;50.080;8.226;2023-12-20T09:52:34;6.40;99.90
13697;DHT22;6920;50.080;8.226;2023-12-20T10:02:29;6.40;99.90
13697;DHT22;6920;50.080;8.226;2023-12-20T10:09:54;6.60;99.90
13697;DHT22;6920;50.080;8.226;2023-12-20T10:14:50;6.80;99.90
13697;DHT22;6920;50.080;8.226;2023-12-20T10:19:47;6.90;99.90
13697;DHT22;6920;50.080;8.226;2023-12-20T10:22:15;6.70;99.90
13697;DHT22;6920;50.080;8.226;2023-12-20T10:32:22;7.20;99.90
13697;DHT22;6920;50.080;8.226;2023-12-20T10:34:53;7.20;99.90
13697;DHT22;6920;50.080;8.226;2023-12-20T10:39:52;7.30;99.90
13697;DHT22;6920;50.080;8.226;2023-12-20T10:44:50;7.50;99.90
13697;DHT22;6920;50.080;8.226;2023-12-20T10:47:20;7.60;99.90
13697;DHT22;6920;50.080;8.226;2023-12-20T10:49:47;7.70;99.90
13697;DHT22;6920;50.080;8.226;2023-12-20T11:04:44;7.80;99.90
13697;DHT22;6920;50.080;8.226;2023-12-20T11:07:21;7.90;99.90
13697;DHT22;6920;50.080;8.226;2023-12-20T11:09:56;8.00;99.90
13697;DHT22;6920;50.080;8.226;2023-12-20T11:12:35;8.10;99.90
13697;DHT22;6920;50.080;8.226;2023-12-20T11:15:05;8.10;99.90
13697;DHT22;6920;50.080;8.226;2023-12-20T11:17:34;8.00;99.90
13697;DHT22;6920;50.080;8.226;2023-12-20T11:20:08;8.10;99.90
13697;DHT22;6920;50.080;8.226;2023-12-20T11:22:51;8.00;99.90
13697;DHT22;6920;50.080;8.226;2023-12-20T11:28:08;8.10;99.90
13697;DHT22;6920;50.080;8.226;2023-12-20T11:30:46;8.20;99.90
13697;DHT22;6920;50.080;8.226;2023-12-20T11:33:14;8.20;99.90
13697;DHT22;6920;50.080;8.226;2023-12-20T11:38:13;8.20;99.90
13697;DHT22;6920;50.080;8.226;2023-12-20T11:43:09;8.00;99.90
13697;DHT22;6920;50.080;8.226;2023-12-20T11:45:38;8.00;99.90
13697;DHT22;6920;50.080;8.226;2023-12-20T11:48:15;7.90;99.90
13697;DHT22;6920;50.080;8.226;2023-12-20T11:53:12;8.10;99.90
13697;DHT22;6920;50.080;8.226;2023-12-20T11:55:39;8.10;99.90
13697;DHT22;6920;50.080;8.226;2023-12-20T11:58:07;8.10;99.90
13697;DHT22;6920;50.080;8.226;2023-12-20T12:00:35;8.00;99.90
13697;DHT22;6920;50.080;8.226;2023-12-20T12:03:02;8.10;99.90
13697;DHT22;6920;50.080;8.226;2023-12-20T12:05:31;8.10;99.90
13697;DHT22;6920;50.080;8.226;2023-12-20T12:07:59;8.10;99.90
13697;DHT22;6920;50.080;8.226;2023-12-20T12:10:29;8.00;99.90
13697;DHT22;6920;50.080;8.226;2023-12-20T12:12:58;8.00;99.90
13697;DHT22;6920;50.080;8.226;2023-12-20T12:15:29;8.00;99.90
13697;DHT22;6920;50.080;8.226;2023-12-20T12:17:57;8.00;99.90
13697;DHT22;6920;50.080;8.226;2023-12-20T12:20:25;8.00;99.90
13697;DHT22;6920;50.080;8.226;2023-12-20T12:22:59;8.10;99.90
13697;DHT22;6920;50.080;8.226;2023-12-20T12:25:29;8.10;99.90
13697;DHT22;6920;50.080;8.226;2023-12-20T12:27:58;8.20;99.90
13697;DHT22;6920;50.080;8.226;2023-12-20T12:32:55;8.20;99.90
13697;DHT22;6920;50.080;8.226;2023-12-20T12:35:23;8.20;99.90
13697;DHT22;6920;50.080;8.226;2023-12-20T12:37:53;8.10;99.90
13697;DHT22;6920;50.080;8.226;2023-12-20T12:40:21;8.10;99.90
13697;DHT22;6920;50.080;8.226;2023-12-20T12:42:50;8.10;99.90
13697;DHT22;6920;50.080;8.226;2023-12-20T12:45:18;8.10;99.90
13697;DHT22;6920;50.080;8.226;2023-12-20T12:47:45;8.10;99.90
13697;DHT22;6920;50.080;8.226;2023-12-20T12:50:12;8.10;99.90
13697;DHT22;6920;50.080;8.226;2023-12-20T12:55:12;8.20;99.90
13697;DHT22;6920;50.080;8.226;2023-12-20T13:00:10;8.20;99.90
13697;DHT22;6920;50.080;8.226;2023-12-20T13:02:37;8.20;99.90
13697;DHT22;6920;50.080;8.226;2023-12-20T13:05:08;8.30;99.90
13697;DHT22;6920;50.080;8.226;2023-12-20T13:10:07;8.40;99.90
13697;DHT22;6920;50.080;8.226;2023-12-20T13:12:37;8.40;99.90
13697;DHT22;6920;50.080;8.226;2023-12-20T13:17:37;8.60;99.90
13697;DHT22;6920;50.080;8.226;2023-12-20T13:20:06;8.70;99.90
13697;DHT22;6920;50.080;8.226;2023-12-20T13:22:34;8.60;99.90
13697;DHT22;6920;50.080;8.226;2023-12-20T13:29:58;8.30;99.90
13697;DHT22;6920;50.080;8.226;2023-12-20T13:34:55;8.40;99.90
13697;DHT22;6920;50.080;8.226;2023-12-20T13:37:22;8.40;99.90
13697;DHT22;6920;50.080;8.226;2023-12-20T13:39:51;8.40;99.90
13697;DHT22;6920;50.080;8.226;2023-12-20T13:42:19;8.40;99.90
13697;DHT22;6920;50.080;8.226;2023-12-20T13:47:14;8.40;99.90
13697;DHT22;6920;50.080;8.226;2023-12-20T13:52:11;8.40;99.90
13697;DHT22;6920;50.080;8.226;2023-12-20T14:02:03;8.20;99.90
13697;DHT22;6920;50.080;8.226;2023-12-20T14:04:31;8.20;99.90
13697;DHT22;6920;50.080;8.226;2023-12-20T14:11:56;7.90;99.90
13697;DHT22;6920;50.080;8.226;2023-12-20T14:14:23;8.10;99.90
13697;DHT22;6920;50.080;8.226;2023-12-20T14:16:50;8.00;99.90
13697;DHT22;6920;50.080;8.226;2023-12-20T14:21:46;8.00;99.90
13697;DHT22;6920;50.080;8.226;2023-12-20T14:24:15;8.00;99.90
13697;DHT22;6920;50.080;8.226;2023-12-20T14:29:12;7.80;99.90
13697;DHT22;6920;50.080;8.226;2023-12-20T14:31:41;7.80;99.90
13697;DHT22;6920;50.080;8.226;2023-12-20T14:34:08;7.80;99.90
13697;DHT22;6920;50.080;8.226;2023-12-20T14:36:35;7.70;99.90
13697;DHT22;6920;50.080;8.226;2023-12-20T14:48:58;7.60;99.90
13697;DHT22;6920;50.080;8.226;2023-12-20T14:51:28;7.70;99.90
13697;DHT22;6920;50.080;8.226;2023-12-20T14:53:55;7.60;99.90
13697;DHT22;6920;50.080;8.226;2023-12-20T14:56:24;7.60;99.90
13697;DHT22;6920;50.080;8.226;2023-12-20T14:58:54;7.60;99.90
13697;DHT22;6920;50.080;8.226;2023-12-20T15:03:49;7.60;99.90
13697;DHT22;6920;50.080;8.226;2023-12-20T15:08:46;7.50;99.90
13697;DHT22;6920;50.080;8.226;2023-12-20T15:11:13;7.60;99.90
13697;DHT22;6920;50.080;8.226;2023-12-20T15:13:41;7.60;99.90
13697;DHT22;6920;50.080;8.226;2023-12-20T15:16:10;7.60;99.90
13697;DHT22;6920;50.080;8.226;2023-12-20T15:30:55;7.60;99.90
13697;DHT22;6920;50.080;8.226;2023-12-20T15:33:24;7.40;99.90
13697;DHT22;6920;50.080;8.226;2023-12-20T15:50:45;7.60;99.90
13697;DHT22;6920;50.080;8.226;2023-12-20T16:03:04;7.50;99.90
13697;DHT22;6920;50.080;8.226;2023-12-20T16:10:29;7.50;99.90
13697;DHT22;6920;50.080;8.226;2023-12-20T16:12:58;7.50;99.90
13697;DHT22;6920;50.080;8.226;2023-12-20T16:15:25;7.60;99.90
13697;DHT22;6920;50.080;8.226;2023-12-20T16:17:53;7.60;99.90
13697;DHT22;6920;50.080;8.226;2023-12-20T16:20:20;7.60;99.90
13697;DHT22;6920;50.080;8.226;2023-12-20T16:22:48;7.60;99.90
13697;DHT22;6920;50.080;8.226;2023-12-20T16:27:45;7.70;99.90
13697;DHT22;6920;50.080;8.226;2023-12-20T16:30:14;7.70;99.90
13697;DHT22;6920;50.080;8.226;2023-12-20T16:35:09;7.70;99.90
13697;DHT22;6920;50.080;8.226;2023-12-20T16:37:37;7.60;99.90
13697;DHT22;6920;50.080;8.226;2023-12-20T16:40:06;7.60;99.90
13697;DHT22;6920;50.080;8.226;2023-12-20T16:42:36;7.60;99.90
13697;DHT22;6920;50.080;8.226;2023-12-20T16:45:05;7.60;99.90
13697;DHT22;6920;50.080;8.226;2023-12-20T16:52:31;7.60;99.90
13697;DHT22;6920;50.080;8.226;2023-12-20T16:57:26;7.60;99.90
13697;DHT22;6920;50.080;8.226;2023-12-20T17:02:23;7.60;99.90
13697;DHT22;6920;50.080;8.226;2023-12-20T17:04:50;7.60;99.90
13697;DHT22;6920;50.080;8.226;2023-12-20T17:09:45;7.60;99.90
13697;DHT22;6920;50.080;8.226;2023-12-20T17:12:14;7.70;99.90
13697;DHT22;6920;50.080;8.226;2023-12-20T17:17:11;4.50;99.90
13697;DHT22;6920;50.080;8.226;2023-12-20T17:19:39;7.70;99.90
13697;DHT22;6920;50.080;8.226;2023-12-20T17:22:07;7.70;99.90
13697;DHT22;6920;50.080;8.226;2023-12-20T17:24:35;7.70;99.90
13697;DHT22;6920;50.080;8.226;2023-12-20T17:27:03;7.70;99.90
13697;DHT22;6920;50.080;8.226;2023-12-20T17:29:31;7.60;99.90
13697;DHT22;6920;50.080;8.226;2023-12-20T17:34:28;7.70;99.90
13697;DHT22;6920;50.080;8.226;2023-12-20T17:36:55;7.60;99.90
13697;DHT22;6920;50.080;8.226;2023-12-20T17:39:25;7.70;99.90
13697;DHT22;6920;50.080;8.226;2023-12-20T17:41:52;7.70;99.90
13697;DHT22;6920;50.080;8.226;2023-12-20T17:44:20;7.70;99.90
13697;DHT22;6920;50.080;8.226;2023-12-20T17:46:48;7.70;99.90
13697;DHT22;6920;50.080;8.226;2023-12-20T17:49:16;7.70;99.90
13697;DHT22;6920;50.080;8.226;2023-12-20T17:54:14;7.70;99.90
13697;DHT22;6920;50.080;8.226;2023-12-20T17:56:41;7.70;99.90
13697;DHT22;6920;50.080;8.226;2023-12-20T18:01:39;7.70;99.90
13697;DHT22;6920;50.080;8.226;2023-12-20T18:04:07;7.70;99.90
13697;DHT22;6920;50.080;8.226;2023-12-20T18:06:34;7.70;99.90
13697;DHT22;6920;50.080;8.226;2023-12-20T18:18:54;7.70;99.90
13697;DHT22;6920;50.080;8.226;2023-12-20T18:21:22;7.70;99.90
13697;DHT22;6920;50.080;8.226;2023-12-20T18:23:49;7.70;99.90
13697;DHT22;6920;50.080;8.226;2023-12-20T18:26:20;7.60;99.90
13697;DHT22;6920;50.080;8.226;2023-12-20T18:28:47;7.60;99.90
13697;DHT22;6920;50.080;8.226;2023-12-20T18:31:17;7.60;99.90
13697;DHT22;6920;50.080;8.226;2023-12-20T18:33:44;7.60;99.90
13697;DHT22;6920;50.080;8.226;2023-12-20T18:38:40;7.70;99.90
13697;DHT22;6920;50.080;8.226;2023-12-20T18:58:36;7.60;99.90
13697;DHT22;6920;50.080;8.226;2023-12-20T19:01:08;7.70;99.90
13697;DHT22;6920;50.080;8.226;2023-12-20T19:03:36;7.70;99.90
13697;DHT22;6920;50.080;8.226;2023-12-20T19:06:04;7.80;99.90
13697;DHT22;6920;50.080;8.226;2023-12-20T19:08:32;7.70;99.90
13697;DHT22;6920;50.080;8.226;2023-12-20T19:13:31;8.00;99.90
13697;DHT22;6920;50.080;8.226;2023-12-20T19:16:00;7.60;99.90
13697;DHT22;6920;50.080;8.226;2023-12-20T19:20:57;7.60;99.90
13697;DHT22;6920;50.080;8.226;2023-12-20T19:26:09;7.40;99.90
13697;DHT22;6920;50.080;8.226;2023-12-20T19:28:40;7.40;99.90
13697;DHT22;6920;50.080;8.226;2023-12-20T19:31:09;7.40;99.90
13697;DHT22;6920;50.080;8.226;2023-12-20T19:33:41;7.30;99.90
13697;DHT22;6920;50.080;8.226;2023-12-20T19:41:07;7.40;99.90
13697;DHT22;6920;50.080;8.226;2023-12-20T19:43:35;7.30;99.90
13697;DHT22;6920;50.080;8.226;2023-12-20T19:46:02;7.30;99.90
13697;DHT22;6920;50.080;8.226;2023-12-20T19:48:35;7.30;99.90
13697;DHT22;6920;50.080;8.226;2023-12-20T19:53:33;7.20;99.90
13697;DHT22;6920;50.080;8.226;2023-12-20T19:58:28;7.10;99.90
13697;DHT22;6920;50.080;8.226;2023-12-20T20:00:55;7.10;99.90
13697;DHT22;6920;50.080;8.226;2023-12-20T20:03:24;7.10;99.90
13697;DHT22;6920;50.080;8.226;2023-12-20T20:05:51;7.10;99.90
13697;DHT22;6920;50.080;8.226;2023-12-20T20:08:21;7.10;99.90
13697;DHT22;6920;50.080;8.226;2023-12-20T20:10:50;7.10;99.90
13697;DHT22;6920;50.080;8.226;2023-12-20T20:18:14;7.10;99.90
13697;DHT22;6920;50.080;8.226;2023-12-20T20:20:44;7.10;99.90
13697;DHT22;6920;50.080;8.226;2023-12-20T20:23:13;7.10;99.90
13697;DHT22;6920;50.080;8.226;2023-12-20T20:25:42;7.10;99.90
13697;DHT22;6920;50.080;8.226;2023-12-20T20:28:09;7.10;99.90
13697;DHT22;6920;50.080;8.226;2023-12-20T20:30:37;7.10;99.90
13697;DHT22;6920;50.080;8.226;2023-12-20T20:33:05;7.10;99.90
13697;DHT22;6920;50.080;8.226;2023-12-20T20:35:32;7.10;99.90
13697;DHT22;6920;50.080;8.226;2023-12-20T20:38:00;7.10;99.90
13697;DHT22;6920;50.080;8.226;2023-12-20T20:42:58;7.20;99.90
13697;DHT22;6920;50.080;8.226;2023-12-20T20:45:26;7.20;99.90
13697;DHT22;6920;50.080;8.226;2023-12-20T20:47:54;7.20;99.90
13697;DHT22;6920;50.080;8.226;2023-12-20T20:50:22;7.20;99.90
13697;DHT22;6920;50.080;8.226;2023-12-20T20:52:50;7.20;99.90
13697;DHT22;6920;50.080;8.226;2023-12-20T20:55:18;8.30;99.90
13697;DHT22;6920;50.080;8.226;2023-12-20T20:57:45;7.30;99.90
13697;DHT22;6920;50.080;8.226;2023-12-20T21:02:46;7.30;99.90
13697;DHT22;6920;50.080;8.226;2023-12-20T21:05:13;7.30;99.90
13697;DHT22;6920;50.080;8.226;2023-12-20T21:07:41;7.40;99.90
13697;DHT22;6920;50.080;8.226;2023-12-20T21:10:10;7.30;99.90
13697;DHT22;6920;50.080;8.226;2023-12-20T21:12:38;7.30;99.90
13697;DHT22;6920;50.080;8.226;2023-12-20T21:15:06;7.20;99.90
13697;DHT22;6920;50.080;8.226;2023-12-20T21:17:36;7.30;99.90
13697;DHT22;6920;50.080;8.226;2023-12-20T21:22:37;7.30;99.90
13697;DHT22;6920;50.080;8.226;2023-12-20T21:27:32;7.40;99.90
13697;DHT22;6920;50.080;8.226;2023-12-20T21:30:01;7.40;99.90
13697;DHT22;6920;50.080;8.226;2023-12-20T21:34:58;10.00;99.90
13697;DHT22;6920;50.080;8.226;2023-12-20T21:37:25;7.50;99.90
13697;DHT22;6920;50.080;8.226;2023-12-20T21:42:22;7.40;99.90
13697;DHT22;6920;50.080;8.226;2023-12-20T21:44:50;7.40;99.90
13697;DHT22;6920;50.080;8.226;2023-12-20T21:47:17;7.50;99.90
13697;DHT22;6920;50.080;8.226;2023-12-20T21:49:45;7.50;99.90
13697;DHT22;6920;50.080;8.226;2023-12-20T21:52:14;7.50;99.90
13697;DHT22;6920;50.080;8.226;2023-12-20T21:54:42;7.50;99.90
13697;DHT22;6920;50.080;8.226;2023-12-20T21:59:37;7.50;99.90
13697;DHT22;6920;50.080;8.226;2023-12-20T22:02:05;7.50;99.90
13697;DHT22;6920;50.080;8.226;2023-12-20T22:04:33;7.60;99.90
13697;DHT22;6920;50.080;8.226;2023-12-20T22:07:01;7.60;99.90
13697;DHT22;6920;50.080;8.226;2023-12-20T22:09:30;8.20;99.90
13697;DHT22;6920;50.080;8.226;2023-12-20T22:16:56;7.60;99.90
13697;DHT22;6920;50.080;8.226;2023-12-20T22:19:24;7.60;99.90
13697;DHT22;6920;50.080;8.226;2023-12-20T22:21:51;7.70;99.90
13697;DHT22;6920;50.080;8.226;2023-12-20T22:26:48;7.70;99.90
13697;DHT22;6920;50.080;8.226;2023-12-20T22:29:16;7.60;99.90
13697;DHT22;6920;50.080;8.226;2023-12-20T22:31:43;7.50;99.90
13697;DHT22;6920;50.080;8.226;2023-12-20T22:34:11;7.60;99.90
13697;DHT22;6920;50.080;8.226;2023-12-20T22:53:59;7.60;99.90
13697;DHT22;6920;50.080;8.226;2023-12-20T22:58:56;7.50;99.90
13697;DHT22;6920;50.080;8.226;2023-12-20T23:01:26;7.50;99.90
13697;DHT22;6920;50.080;8.226;2023-12-20T23:03:53;7.50;99.90
13697;DHT22;6920;50.080;8.226;2023-12-20T23:06:25;7.50;99.90
13697;DHT22;6920;50.080;8.226;2023-12-20T23:11:24;7.50;99.90
13697;DHT22;6920;50.080;8.226;2023-12-20T23:13:53;7.60;99.90
13697;DHT22;6920;50.080;8.226;2023-12-20T23:16:22;7.50;99.90
13697;DHT22;6920;50.080;8.226;2023-12-20T23:22:18;7.60;99.90
13697;DHT22;6920;50.080;8.226;2023-12-20T23:24:46;7.60;99.90
13697;DHT22;6920;50.080;8.226;2023-12-20T23:27:16;7.60;99.90
13697;DHT22;6920;50.080;8.226;2023-12-20T23:29:44;7.70;99.90
13697;DHT22;6920;50.080;8.226;2023-12-20T23:32:12;7.70;99.90
13697;DHT22;6920;50.080;8.226;2023-12-20T23:34:39;7.70;99.90
13697;DHT22;6920;50.080;8.226;2023-12-20T23:37:06;7.70;99.90
13697;DHT22;6920;50.080;8.226;2023-12-20T23:44:34;7.70;99.90
13697;DHT22;6920;50.080;8.226;2023-12-20T23:49:29;7.70;99.90
13697;DHT22;6920;50.080;8.226;2023-12-20T23:51:56;7.80;99.90
13697;DHT22;6920;50.080;8.226;2023-12-20T23:54:23;7.70;99.90
